sensor_id;sensor_type;location;lat;lon;timestamp;P1;durP1;ratioP1;P2;durP2;ratioP2
21959;SDS011;11144;43.030;25.108;2023-06-04T00:00:59;12.00;;;6.53;;
21959;SDS011;11144;43.030;25.108;2023-06-04T00:02:32;8.02;;;5.55;;
21959;SDS011;11144;43.030;25.108;2023-06-04T00:04:06;8.82;;;5.47;;
21959;SDS011;11144;43.030;25.108;2023-06-04T00:05:39;10.77;;;5.85;;
21959;SDS011;11144;43.030;25.108;2023-06-04T00:07:13;9.25;;;5.65;;
21959;SDS011;11144;43.030;25.108;2023-06-04T00:08:47;9.40;;;5.47;;
21959;SDS011;11144;43.030;25.108;2023-06-04T00:10:20;8.48;;;6.05;;
21959;SDS011;11144;43.030;25.108;2023-06-04T00:11:55;10.57;;;5.70;;
21959;SDS011;11144;43.030;25.108;2023-06-04T00:13:28;7.63;;;5.75;;
21959;SDS011;11144;43.030;25.108;2023-06-04T00:15:02;10.00;;;6.10;;
21959;SDS011;11144;43.030;25.108;2023-06-04T00:16:35;9.10;;;5.30;;
21959;SDS011;11144;43.030;25.108;2023-06-04T00:18:08;9.52;;;5.55;;
21959;SDS011;11144;43.030;25.108;2023-06-04T00:19:43;15.95;;;6.25;;
21959;SDS011;11144;43.030;25.108;2023-06-04T00:21:16;8.23;;;5.38;;
21959;SDS011;11144;43.030;25.108;2023-06-04T00:22:48;10.18;;;6.20;;
21959;SDS011;11144;43.030;25.108;2023-06-04T00:24:22;8.98;;;5.57;;
21959;SDS011;11144;43.030;25.108;2023-06-04T00:25:56;11.60;;;5.38;;
21959;SDS011;11144;43.030;25.108;2023-06-04T00:27:30;8.15;;;5.50;;
21959;SDS011;11144;43.030;25.108;2023-06-04T00:29:03;10.43;;;6.55;;
21959;SDS011;11144;43.030;25.108;2023-06-04T00:30:37;7.93;;;5.80;;
21959;SDS011;11144;43.030;25.108;2023-06-04T00:32:11;10.32;;;5.85;;
21959;SDS011;11144;43.030;25.108;2023-06-04T00:33:44;14.43;;;5.82;;
21959;SDS011;11144;43.030;25.108;2023-06-04T00:35:17;9.45;;;5.28;;
21959;SDS011;11144;43.030;25.108;2023-06-04T00:36:52;8.85;;;5.85;;
21959;SDS011;11144;43.030;25.108;2023-06-04T00:38:25;11.55;;;5.60;;
21959;SDS011;11144;43.030;25.108;2023-06-04T00:39:58;14.70;;;5.55;;
21959;SDS011;11144;43.030;25.108;2023-06-04T00:41:31;12.15;;;5.22;;
21959;SDS011;11144;43.030;25.108;2023-06-04T00:43:06;9.70;;;5.75;;
21959;SDS011;11144;43.030;25.108;2023-06-04T00:44:40;7.72;;;6.15;;
21959;SDS011;11144;43.030;25.108;2023-06-04T00:46:16;12.20;;;5.18;;
21959;SDS011;11144;43.030;25.108;2023-06-04T00:47:50;15.10;;;6.28;;
21959;SDS011;11144;43.030;25.108;2023-06-04T00:49:23;11.82;;;6.60;;
21959;SDS011;11144;43.030;25.108;2023-06-04T00:50:57;10.65;;;5.18;;
21959;SDS011;11144;43.030;25.108;2023-06-04T00:52:29;10.15;;;5.50;;
21959;SDS011;11144;43.030;25.108;2023-06-04T00:54:02;11.40;;;6.05;;
21959;SDS011;11144;43.030;25.108;2023-06-04T00:55:40;9.95;;;4.88;;
21959;SDS011;11144;43.030;25.108;2023-06-04T00:57:14;11.57;;;6.00;;
21959;SDS011;11144;43.030;25.108;2023-06-04T00:58:49;12.18;;;5.53;;
21959;SDS011;11144;43.030;25.108;2023-06-04T01:00:21;8.13;;;5.47;;
21959;SDS011;11144;43.030;25.108;2023-06-04T01:01:56;18.80;;;6.13;;
21959;SDS011;11144;43.030;25.108;2023-06-04T01:03:35;12.45;;;7.25;;
21959;SDS011;11144;43.030;25.108;2023-06-04T01:05:16;8.82;;;5.95;;
21959;SDS011;11144;43.030;25.108;2023-06-04T01:06:55;15.32;;;5.80;;
21959;SDS011;11144;43.030;25.108;2023-06-04T01:08:30;10.07;;;5.72;;
21959;SDS011;11144;43.030;25.108;2023-06-04T01:10:04;9.38;;;6.32;;
21959;SDS011;11144;43.030;25.108;2023-06-04T01:11:38;8.80;;;6.03;;
21959;SDS011;11144;43.030;25.108;2023-06-04T01:13:12;11.07;;;6.15;;
21959;SDS011;11144;43.030;25.108;2023-06-04T01:14:47;7.40;;;6.28;;
21959;SDS011;11144;43.030;25.108;2023-06-04T01:16:20;12.98;;;6.57;;
21959;SDS011;11144;43.030;25.108;2023-06-04T01:17:54;12.25;;;6.72;;
21959;SDS011;11144;43.030;25.108;2023-06-04T01:19:41;9.52;;;6.60;;
21959;SDS011;11144;43.030;25.108;2023-06-04T01:21:31;13.43;;;7.30;;
21959;SDS011;11144;43.030;25.108;2023-06-04T01:25:09;10.80;;;6.97;;
21959;SDS011;11144;43.030;25.108;2023-06-04T01:26:51;13.80;;;6.45;;
21959;SDS011;11144;43.030;25.108;2023-06-04T01:28:27;17.65;;;7.35;;
21959;SDS011;11144;43.030;25.108;2023-06-04T01:30:03;17.08;;;6.75;;
21959;SDS011;11144;43.030;25.108;2023-06-04T01:31:37;14.57;;;6.85;;
21959;SDS011;11144;43.030;25.108;2023-06-04T01:33:13;8.60;;;6.95;;
21959;SDS011;11144;43.030;25.108;2023-06-04T01:34:47;16.95;;;7.55;;
21959;SDS011;11144;43.030;25.108;2023-06-04T01:36:20;11.93;;;7.38;;
21959;SDS011;11144;43.030;25.108;2023-06-04T01:37:54;14.75;;;7.40;;
21959;SDS011;11144;43.030;25.108;2023-06-04T01:39:28;12.35;;;6.82;;
21959;SDS011;11144;43.030;25.108;2023-06-04T01:41:02;10.85;;;6.90;;
21959;SDS011;11144;43.030;25.108;2023-06-04T01:42:35;11.27;;;6.82;;
21959;SDS011;11144;43.030;25.108;2023-06-04T01:44:09;10.43;;;7.13;;
21959;SDS011;11144;43.030;25.108;2023-06-04T01:45:44;16.35;;;7.47;;
21959;SDS011;11144;43.030;25.108;2023-06-04T01:47:18;10.57;;;7.15;;
21959;SDS011;11144;43.030;25.108;2023-06-04T01:48:50;13.38;;;7.18;;
21959;SDS011;11144;43.030;25.108;2023-06-04T01:50:23;13.90;;;8.15;;
21959;SDS011;11144;43.030;25.108;2023-06-04T01:51:56;11.70;;;6.60;;
21959;SDS011;11144;43.030;25.108;2023-06-04T01:53:29;8.65;;;6.50;;
21959;SDS011;11144;43.030;25.108;2023-06-04T01:55:02;16.25;;;7.22;;
21959;SDS011;11144;43.030;25.108;2023-06-04T01:56:36;12.75;;;6.80;;
21959;SDS011;11144;43.030;25.108;2023-06-04T01:58:09;9.82;;;6.25;;
21959;SDS011;11144;43.030;25.108;2023-06-04T01:59:43;13.48;;;7.68;;
21959;SDS011;11144;43.030;25.108;2023-06-04T02:01:18;14.93;;;7.18;;
21959;SDS011;11144;43.030;25.108;2023-06-04T02:02:51;11.57;;;7.80;;
21959;SDS011;11144;43.030;25.108;2023-06-04T02:04:28;12.93;;;7.38;;
21959;SDS011;11144;43.030;25.108;2023-06-04T02:06:01;19.77;;;7.53;;
21959;SDS011;11144;43.030;25.108;2023-06-04T02:07:34;11.77;;;7.32;;
21959;SDS011;11144;43.030;25.108;2023-06-04T02:09:09;15.57;;;7.95;;
21959;SDS011;11144;43.030;25.108;2023-06-04T02:10:43;9.25;;;7.15;;
21959;SDS011;11144;43.030;25.108;2023-06-04T02:12:17;12.52;;;7.18;;
21959;SDS011;11144;43.030;25.108;2023-06-04T02:13:50;10.32;;;6.65;;
21959;SDS011;11144;43.030;25.108;2023-06-04T02:15:24;9.20;;;6.85;;
21959;SDS011;11144;43.030;25.108;2023-06-04T02:16:58;13.52;;;6.82;;
21959;SDS011;11144;43.030;25.108;2023-06-04T02:18:32;9.45;;;7.15;;
21959;SDS011;11144;43.030;25.108;2023-06-04T02:20:04;10.48;;;6.82;;
21959;SDS011;11144;43.030;25.108;2023-06-04T02:21:41;11.18;;;7.05;;
21959;SDS011;11144;43.030;25.108;2023-06-04T02:23:16;9.82;;;6.95;;
21959;SDS011;11144;43.030;25.108;2023-06-04T02:24:49;12.00;;;7.20;;
21959;SDS011;11144;43.030;25.108;2023-06-04T02:26:23;11.13;;;7.68;;
21959;SDS011;11144;43.030;25.108;2023-06-04T02:27:56;13.85;;;7.53;;
21959;SDS011;11144;43.030;25.108;2023-06-04T02:29:29;10.65;;;7.28;;
21959;SDS011;11144;43.030;25.108;2023-06-04T02:31:02;11.23;;;7.68;;
21959;SDS011;11144;43.030;25.108;2023-06-04T02:32:38;14.70;;;7.25;;
21959;SDS011;11144;43.030;25.108;2023-06-04T02:34:12;8.98;;;6.93;;
21959;SDS011;11144;43.030;25.108;2023-06-04T02:35:46;12.68;;;6.88;;
21959;SDS011;11144;43.030;25.108;2023-06-04T02:37:19;16.83;;;6.68;;
21959;SDS011;11144;43.030;25.108;2023-06-04T02:38:52;9.38;;;6.95;;
21959;SDS011;11144;43.030;25.108;2023-06-04T02:40:25;8.05;;;6.38;;
21959;SDS011;11144;43.030;25.108;2023-06-04T02:41:59;11.18;;;6.05;;
21959;SDS011;11144;43.030;25.108;2023-06-04T02:43:33;10.65;;;6.88;;
21959;SDS011;11144;43.030;25.108;2023-06-04T02:45:06;14.82;;;8.00;;
21959;SDS011;11144;43.030;25.108;2023-06-04T02:46:39;12.77;;;6.60;;
21959;SDS011;11144;43.030;25.108;2023-06-04T02:48:14;11.50;;;7.10;;
21959;SDS011;11144;43.030;25.108;2023-06-04T02:49:47;10.18;;;8.05;;
21959;SDS011;11144;43.030;25.108;2023-06-04T02:51:20;12.07;;;7.75;;
21959;SDS011;11144;43.030;25.108;2023-06-04T02:52:53;13.77;;;7.38;;
21959;SDS011;11144;43.030;25.108;2023-06-04T02:54:26;8.90;;;6.75;;
21959;SDS011;11144;43.030;25.108;2023-06-04T02:55:59;13.48;;;6.78;;
21959;SDS011;11144;43.030;25.108;2023-06-04T02:57:32;12.07;;;7.03;;
21959;SDS011;11144;43.030;25.108;2023-06-04T02:59:04;12.43;;;6.88;;
21959;SDS011;11144;43.030;25.108;2023-06-04T03:00:44;12.02;;;6.85;;
21959;SDS011;11144;43.030;25.108;2023-06-04T03:02:18;15.55;;;6.63;;
21959;SDS011;11144;43.030;25.108;2023-06-04T03:03:51;13.18;;;7.10;;
21959;SDS011;11144;43.030;25.108;2023-06-04T03:05:25;10.63;;;6.65;;
21959;SDS011;11144;43.030;25.108;2023-06-04T03:06:58;16.95;;;7.35;;
21959;SDS011;11144;43.030;25.108;2023-06-04T03:08:32;13.18;;;6.55;;
21959;SDS011;11144;43.030;25.108;2023-06-04T03:10:06;11.38;;;6.47;;
21959;SDS011;11144;43.030;25.108;2023-06-04T03:11:40;12.73;;;7.07;;
21959;SDS011;11144;43.030;25.108;2023-06-04T03:13:14;16.58;;;6.80;;
21959;SDS011;11144;43.030;25.108;2023-06-04T03:14:47;10.63;;;6.70;;
21959;SDS011;11144;43.030;25.108;2023-06-04T03:16:20;11.98;;;5.88;;
21959;SDS011;11144;43.030;25.108;2023-06-04T03:17:54;8.85;;;6.70;;
21959;SDS011;11144;43.030;25.108;2023-06-04T03:19:30;14.43;;;6.53;;
21959;SDS011;11144;43.030;25.108;2023-06-04T03:21:03;10.00;;;6.40;;
21959;SDS011;11144;43.030;25.108;2023-06-04T03:22:36;13.75;;;7.93;;
21959;SDS011;11144;43.030;25.108;2023-06-04T03:24:10;13.00;;;6.30;;
21959;SDS011;11144;43.030;25.108;2023-06-04T03:25:44;9.25;;;6.38;;
21959;SDS011;11144;43.030;25.108;2023-06-04T03:27:17;14.90;;;6.30;;
21959;SDS011;11144;43.030;25.108;2023-06-04T03:28:50;9.90;;;7.18;;
21959;SDS011;11144;43.030;25.108;2023-06-04T03:30:24;11.68;;;7.10;;
21959;SDS011;11144;43.030;25.108;2023-06-04T03:32:04;13.75;;;6.93;;
21959;SDS011;11144;43.030;25.108;2023-06-04T03:33:40;12.73;;;7.05;;
21959;SDS011;11144;43.030;25.108;2023-06-04T03:35:14;9.43;;;6.47;;
21959;SDS011;11144;43.030;25.108;2023-06-04T03:36:46;12.90;;;7.25;;
21959;SDS011;11144;43.030;25.108;2023-06-04T03:38:20;9.45;;;6.45;;
21959;SDS011;11144;43.030;25.108;2023-06-04T03:39:54;11.85;;;7.15;;
21959;SDS011;11144;43.030;25.108;2023-06-04T03:41:27;11.50;;;6.90;;
21959;SDS011;11144;43.030;25.108;2023-06-04T03:43:01;8.85;;;6.22;;
21959;SDS011;11144;43.030;25.108;2023-06-04T03:44:36;10.32;;;7.25;;
21959;SDS011;11144;43.030;25.108;2023-06-04T03:46:11;12.27;;;7.10;;
21959;SDS011;11144;43.030;25.108;2023-06-04T03:47:45;10.25;;;6.57;;
21959;SDS011;11144;43.030;25.108;2023-06-04T03:49:18;9.18;;;6.70;;
21959;SDS011;11144;43.030;25.108;2023-06-04T03:50:56;9.35;;;6.95;;
21959;SDS011;11144;43.030;25.108;2023-06-04T03:52:29;11.43;;;7.15;;
21959;SDS011;11144;43.030;25.108;2023-06-04T03:54:04;10.23;;;6.43;;
21959;SDS011;11144;43.030;25.108;2023-06-04T03:55:38;9.48;;;6.47;;
21959;SDS011;11144;43.030;25.108;2023-06-04T03:57:13;13.35;;;6.45;;
21959;SDS011;11144;43.030;25.108;2023-06-04T03:58:46;10.05;;;6.38;;
21959;SDS011;11144;43.030;25.108;2023-06-04T04:00:20;15.63;;;6.95;;
21959;SDS011;11144;43.030;25.108;2023-06-04T04:01:56;13.48;;;6.38;;
21959;SDS011;11144;43.030;25.108;2023-06-04T04:03:33;10.30;;;7.20;;
21959;SDS011;11144;43.030;25.108;2023-06-04T04:05:08;10.98;;;7.25;;
21959;SDS011;11144;43.030;25.108;2023-06-04T04:06:42;19.73;;;8.23;;
21959;SDS011;11144;43.030;25.108;2023-06-04T04:08:16;11.45;;;7.25;;
21959;SDS011;11144;43.030;25.108;2023-06-04T04:09:50;17.90;;;10.38;;
21959;SDS011;11144;43.030;25.108;2023-06-04T04:11:24;17.30;;;9.32;;
21959;SDS011;11144;43.030;25.108;2023-06-04T04:12:58;14.77;;;8.27;;
21959;SDS011;11144;43.030;25.108;2023-06-04T04:14:34;9.07;;;5.85;;
21959;SDS011;11144;43.030;25.108;2023-06-04T04:16:08;11.88;;;6.43;;
21959;SDS011;11144;43.030;25.108;2023-06-04T04:17:42;19.90;;;6.72;;
21959;SDS011;11144;43.030;25.108;2023-06-04T04:19:15;13.13;;;7.70;;
21959;SDS011;11144;43.030;25.108;2023-06-04T04:20:49;11.65;;;6.20;;
21959;SDS011;11144;43.030;25.108;2023-06-04T04:22:23;8.80;;;5.82;;
21959;SDS011;11144;43.030;25.108;2023-06-04T04:23:57;11.63;;;5.45;;
21959;SDS011;11144;43.030;25.108;2023-06-04T04:25:30;10.45;;;5.57;;
21959;SDS011;11144;43.030;25.108;2023-06-04T04:27:06;10.95;;;5.80;;
21959;SDS011;11144;43.030;25.108;2023-06-04T04:28:44;12.52;;;5.63;;
21959;SDS011;11144;43.030;25.108;2023-06-04T04:30:17;8.60;;;5.85;;
21959;SDS011;11144;43.030;25.108;2023-06-04T04:31:54;11.55;;;4.60;;
21959;SDS011;11144;43.030;25.108;2023-06-04T04:33:28;9.55;;;5.43;;
21959;SDS011;11144;43.030;25.108;2023-06-04T04:35:05;9.93;;;5.03;;
21959;SDS011;11144;43.030;25.108;2023-06-04T04:36:42;8.82;;;5.00;;
21959;SDS011;11144;43.030;25.108;2023-06-04T04:38:17;10.80;;;4.97;;
21959;SDS011;11144;43.030;25.108;2023-06-04T04:39:57;11.35;;;4.13;;
21959;SDS011;11144;43.030;25.108;2023-06-04T04:41:34;16.17;;;4.20;;
21959;SDS011;11144;43.030;25.108;2023-06-04T04:43:08;12.75;;;4.10;;
21959;SDS011;11144;43.030;25.108;2023-06-04T04:44:42;11.65;;;3.65;;
21959;SDS011;11144;43.030;25.108;2023-06-04T04:46:19;5.25;;;2.97;;
21959;SDS011;11144;43.030;25.108;2023-06-04T04:47:53;12.57;;;3.30;;
21959;SDS011;11144;43.030;25.108;2023-06-04T04:49:26;11.65;;;3.78;;
21959;SDS011;11144;43.030;25.108;2023-06-04T04:50:59;7.65;;;3.20;;
21959;SDS011;11144;43.030;25.108;2023-06-04T04:52:32;9.63;;;3.25;;
21959;SDS011;11144;43.030;25.108;2023-06-04T04:54:07;11.98;;;3.30;;
21959;SDS011;11144;43.030;25.108;2023-06-04T04:55:42;7.22;;;2.60;;
21959;SDS011;11144;43.030;25.108;2023-06-04T04:57:15;4.32;;;2.58;;
21959;SDS011;11144;43.030;25.108;2023-06-04T04:58:52;10.00;;;2.85;;
21959;SDS011;11144;43.030;25.108;2023-06-04T05:00:26;6.07;;;2.92;;
21959;SDS011;11144;43.030;25.108;2023-06-04T05:02:01;8.23;;;2.97;;
21959;SDS011;11144;43.030;25.108;2023-06-04T05:03:34;12.18;;;3.05;;
21959;SDS011;11144;43.030;25.108;2023-06-04T05:05:08;6.78;;;2.60;;
21959;SDS011;11144;43.030;25.108;2023-06-04T05:06:45;5.57;;;2.97;;
21959;SDS011;11144;43.030;25.108;2023-06-04T05:08:18;6.07;;;3.10;;
21959;SDS011;11144;43.030;25.108;2023-06-04T05:09:52;8.52;;;2.83;;
21959;SDS011;11144;43.030;25.108;2023-06-04T05:11:26;5.25;;;3.20;;
21959;SDS011;11144;43.030;25.108;2023-06-04T05:13:00;7.38;;;3.15;;
21959;SDS011;11144;43.030;25.108;2023-06-04T05:14:41;9.23;;;2.78;;
21959;SDS011;11144;43.030;25.108;2023-06-04T05:16:18;8.95;;;3.13;;
21959;SDS011;11144;43.030;25.108;2023-06-04T05:17:52;8.35;;;2.88;;
21959;SDS011;11144;43.030;25.108;2023-06-04T05:19:32;5.43;;;2.65;;
21959;SDS011;11144;43.030;25.108;2023-06-04T05:21:05;9.70;;;2.55;;
21959;SDS011;11144;43.030;25.108;2023-06-04T05:22:44;4.90;;;2.90;;
21959;SDS011;11144;43.030;25.108;2023-06-04T05:24:18;6.15;;;3.47;;
21959;SDS011;11144;43.030;25.108;2023-06-04T05:25:54;7.80;;;2.90;;
21959;SDS011;11144;43.030;25.108;2023-06-04T05:27:28;12.35;;;2.90;;
21959;SDS011;11144;43.030;25.108;2023-06-04T05:29:03;6.95;;;3.25;;
21959;SDS011;11144;43.030;25.108;2023-06-04T05:30:40;5.15;;;2.50;;
21959;SDS011;11144;43.030;25.108;2023-06-04T05:32:17;5.53;;;2.47;;
21959;SDS011;11144;43.030;25.108;2023-06-04T05:33:51;9.05;;;2.35;;
21959;SDS011;11144;43.030;25.108;2023-06-04T05:35:26;9.02;;;2.40;;
21959;SDS011;11144;43.030;25.108;2023-06-04T05:36:59;13.02;;;4.00;;
21959;SDS011;11144;43.030;25.108;2023-06-04T05:38:36;11.15;;;2.55;;
21959;SDS011;11144;43.030;25.108;2023-06-04T05:40:13;6.13;;;2.97;;
21959;SDS011;11144;43.030;25.108;2023-06-04T05:41:49;7.90;;;2.58;;
21959;SDS011;11144;43.030;25.108;2023-06-04T05:43:23;7.75;;;2.28;;
21959;SDS011;11144;43.030;25.108;2023-06-04T05:44:57;6.82;;;2.28;;
21959;SDS011;11144;43.030;25.108;2023-06-04T05:46:31;5.00;;;2.22;;
21959;SDS011;11144;43.030;25.108;2023-06-04T05:48:05;10.90;;;2.55;;
21959;SDS011;11144;43.030;25.108;2023-06-04T05:49:38;5.60;;;2.20;;
21959;SDS011;11144;43.030;25.108;2023-06-04T05:51:12;15.38;;;3.13;;
21959;SDS011;11144;43.030;25.108;2023-06-04T05:52:47;7.70;;;2.92;;
21959;SDS011;11144;43.030;25.108;2023-06-04T05:54:20;3.30;;;2.10;;
21959;SDS011;11144;43.030;25.108;2023-06-04T05:55:54;4.85;;;2.55;;
21959;SDS011;11144;43.030;25.108;2023-06-04T05:57:29;6.32;;;3.00;;
21959;SDS011;11144;43.030;25.108;2023-06-04T05:59:02;6.53;;;3.17;;
21959;SDS011;11144;43.030;25.108;2023-06-04T06:00:35;4.18;;;2.50;;
21959;SDS011;11144;43.030;25.108;2023-06-04T06:02:09;3.80;;;2.60;;
21959;SDS011;11144;43.030;25.108;2023-06-04T06:03:43;8.80;;;3.75;;
21959;SDS011;11144;43.030;25.108;2023-06-04T06:05:17;4.15;;;2.63;;
21959;SDS011;11144;43.030;25.108;2023-06-04T06:06:51;6.57;;;2.40;;
21959;SDS011;11144;43.030;25.108;2023-06-04T06:08:25;12.65;;;2.75;;
21959;SDS011;11144;43.030;25.108;2023-06-04T06:09:59;5.55;;;2.55;;
21959;SDS011;11144;43.030;25.108;2023-06-04T06:11:33;8.90;;;3.00;;
21959;SDS011;11144;43.030;25.108;2023-06-04T06:13:08;12.60;;;2.67;;
21959;SDS011;11144;43.030;25.108;2023-06-04T06:14:41;7.47;;;2.72;;
21959;SDS011;11144;43.030;25.108;2023-06-04T06:16:15;5.70;;;2.80;;
21959;SDS011;11144;43.030;25.108;2023-06-04T06:17:49;7.72;;;3.08;;
21959;SDS011;11144;43.030;25.108;2023-06-04T06:19:23;6.70;;;2.85;;
21959;SDS011;11144;43.030;25.108;2023-06-04T06:20:56;5.18;;;2.95;;
21959;SDS011;11144;43.030;25.108;2023-06-04T06:22:29;8.45;;;2.80;;
21959;SDS011;11144;43.030;25.108;2023-06-04T06:24:03;12.30;;;3.65;;
21959;SDS011;11144;43.030;25.108;2023-06-04T06:25:38;10.07;;;3.45;;
21959;SDS011;11144;43.030;25.108;2023-06-04T06:27:17;11.18;;;3.88;;
21959;SDS011;11144;43.030;25.108;2023-06-04T06:28:52;9.95;;;3.20;;
21959;SDS011;11144;43.030;25.108;2023-06-04T06:30:26;9.85;;;3.88;;
21959;SDS011;11144;43.030;25.108;2023-06-04T06:31:59;6.88;;;3.97;;
21959;SDS011;11144;43.030;25.108;2023-06-04T06:33:32;8.18;;;3.30;;
21959;SDS011;11144;43.030;25.108;2023-06-04T06:35:06;6.88;;;3.35;;
21959;SDS011;11144;43.030;25.108;2023-06-04T06:36:40;10.65;;;5.03;;
21959;SDS011;11144;43.030;25.108;2023-06-04T06:38:14;10.93;;;5.80;;
21959;SDS011;11144;43.030;25.108;2023-06-04T06:39:49;17.23;;;8.68;;
21959;SDS011;11144;43.030;25.108;2023-06-04T06:41:22;14.50;;;5.53;;
21959;SDS011;11144;43.030;25.108;2023-06-04T06:42:57;22.45;;;9.23;;
21959;SDS011;11144;43.030;25.108;2023-06-04T06:44:32;66.15;;;33.40;;
21959;SDS011;11144;43.030;25.108;2023-06-04T06:46:05;42.92;;;24.17;;
21959;SDS011;11144;43.030;25.108;2023-06-04T06:47:38;41.28;;;23.17;;
21959;SDS011;11144;43.030;25.108;2023-06-04T06:49:11;31.33;;;16.00;;
21959;SDS011;11144;43.030;25.108;2023-06-04T06:50:44;21.42;;;10.57;;
21959;SDS011;11144;43.030;25.108;2023-06-04T06:52:18;18.83;;;9.00;;
21959;SDS011;11144;43.030;25.108;2023-06-04T06:53:52;15.23;;;7.90;;
21959;SDS011;11144;43.030;25.108;2023-06-04T06:55:25;17.20;;;6.88;;
21959;SDS011;11144;43.030;25.108;2023-06-04T06:56:59;16.45;;;7.47;;
21959;SDS011;11144;43.030;25.108;2023-06-04T06:58:32;11.02;;;5.78;;
21959;SDS011;11144;43.030;25.108;2023-06-04T07:00:08;15.00;;;7.50;;
21959;SDS011;11144;43.030;25.108;2023-06-04T07:01:42;27.48;;;17.85;;
21959;SDS011;11144;43.030;25.108;2023-06-04T07:03:15;22.95;;;15.10;;
21959;SDS011;11144;43.030;25.108;2023-06-04T07:04:49;18.70;;;9.63;;
21959;SDS011;11144;43.030;25.108;2023-06-04T07:06:22;14.45;;;7.20;;
21959;SDS011;11144;43.030;25.108;2023-06-04T07:07:56;12.20;;;6.95;;
21959;SDS011;11144;43.030;25.108;2023-06-04T07:09:30;19.70;;;7.70;;
21959;SDS011;11144;43.030;25.108;2023-06-04T07:11:03;14.45;;;5.85;;
21959;SDS011;11144;43.030;25.108;2023-06-04T07:12:37;10.27;;;4.53;;
21959;SDS011;11144;43.030;25.108;2023-06-04T07:14:14;4.65;;;3.65;;
21959;SDS011;11144;43.030;25.108;2023-06-04T07:15:48;7.72;;;3.00;;
21959;SDS011;11144;43.030;25.108;2023-06-04T07:17:22;8.55;;;3.28;;
21959;SDS011;11144;43.030;25.108;2023-06-04T07:18:55;5.85;;;3.47;;
21959;SDS011;11144;43.030;25.108;2023-06-04T07:20:29;4.30;;;2.95;;
21959;SDS011;11144;43.030;25.108;2023-06-04T07:22:03;5.80;;;3.17;;
21959;SDS011;11144;43.030;25.108;2023-06-04T07:23:36;8.88;;;3.35;;
21959;SDS011;11144;43.030;25.108;2023-06-04T07:25:10;10.88;;;3.42;;
21959;SDS011;11144;43.030;25.108;2023-06-04T07:26:43;7.03;;;3.78;;
21959;SDS011;11144;43.030;25.108;2023-06-04T07:28:17;10.55;;;2.92;;
21959;SDS011;11144;43.030;25.108;2023-06-04T07:29:50;5.03;;;3.13;;
21959;SDS011;11144;43.030;25.108;2023-06-04T07:31:25;6.18;;;3.05;;
21959;SDS011;11144;43.030;25.108;2023-06-04T07:32:58;7.72;;;2.88;;
21959;SDS011;11144;43.030;25.108;2023-06-04T07:34:31;6.68;;;3.47;;
21959;SDS011;11144;43.030;25.108;2023-06-04T07:36:05;6.68;;;3.03;;
21959;SDS011;11144;43.030;25.108;2023-06-04T07:37:39;3.78;;;2.80;;
21959;SDS011;11144;43.030;25.108;2023-06-04T07:39:13;7.20;;;3.47;;
21959;SDS011;11144;43.030;25.108;2023-06-04T07:40:46;9.10;;;3.30;;
21959;SDS011;11144;43.030;25.108;2023-06-04T07:42:20;5.88;;;2.80;;
21959;SDS011;11144;43.030;25.108;2023-06-04T07:43:54;5.47;;;2.67;;
21959;SDS011;11144;43.030;25.108;2023-06-04T07:45:29;7.20;;;2.85;;
21959;SDS011;11144;43.030;25.108;2023-06-04T07:47:07;7.75;;;3.53;;
21959;SDS011;11144;43.030;25.108;2023-06-04T07:48:41;7.45;;;3.55;;
21959;SDS011;11144;43.030;25.108;2023-06-04T07:50:14;7.97;;;3.25;;
21959;SDS011;11144;43.030;25.108;2023-06-04T07:51:47;16.13;;;4.70;;
21959;SDS011;11144;43.030;25.108;2023-06-04T07:53:21;11.82;;;3.40;;
21959;SDS011;11144;43.030;25.108;2023-06-04T07:54:54;46.28;;;6.72;;
21959;SDS011;11144;43.030;25.108;2023-06-04T07:56:28;21.75;;;4.22;;
21959;SDS011;11144;43.030;25.108;2023-06-04T07:58:01;5.32;;;3.03;;
21959;SDS011;11144;43.030;25.108;2023-06-04T07:59:37;9.07;;;3.28;;
21959;SDS011;11144;43.030;25.108;2023-06-04T08:01:10;5.00;;;2.75;;
21959;SDS011;11144;43.030;25.108;2023-06-04T08:02:45;9.95;;;3.28;;
21959;SDS011;11144;43.030;25.108;2023-06-04T08:04:20;7.43;;;3.97;;
21959;SDS011;11144;43.030;25.108;2023-06-04T08:05:53;5.85;;;3.10;;
21959;SDS011;11144;43.030;25.108;2023-06-04T08:07:27;12.18;;;3.70;;
21959;SDS011;11144;43.030;25.108;2023-06-04T08:09:00;9.13;;;3.45;;
21959;SDS011;11144;43.030;25.108;2023-06-04T08:10:34;10.77;;;3.50;;
21959;SDS011;11144;43.030;25.108;2023-06-04T08:12:07;6.93;;;2.67;;
21959;SDS011;11144;43.030;25.108;2023-06-04T08:13:41;9.18;;;3.80;;
21959;SDS011;11144;43.030;25.108;2023-06-04T08:15:15;10.77;;;3.28;;
21959;SDS011;11144;43.030;25.108;2023-06-04T08:16:48;6.85;;;3.03;;
21959;SDS011;11144;43.030;25.108;2023-06-04T08:18:23;7.30;;;3.47;;
21959;SDS011;11144;43.030;25.108;2023-06-04T08:19:56;4.38;;;2.78;;
21959;SDS011;11144;43.030;25.108;2023-06-04T08:21:30;10.48;;;2.95;;
21959;SDS011;11144;43.030;25.108;2023-06-04T08:23:03;9.60;;;3.05;;
21959;SDS011;11144;43.030;25.108;2023-06-04T08:24:37;12.55;;;3.58;;
21959;SDS011;11144;43.030;25.108;2023-06-04T08:26:10;10.27;;;2.90;;
21959;SDS011;11144;43.030;25.108;2023-06-04T08:27:44;14.18;;;4.15;;
21959;SDS011;11144;43.030;25.108;2023-06-04T08:29:17;10.15;;;2.70;;
21959;SDS011;11144;43.030;25.108;2023-06-04T08:30:50;10.57;;;2.88;;
21959;SDS011;11144;43.030;25.108;2023-06-04T08:32:23;11.57;;;3.00;;
21959;SDS011;11144;43.030;25.108;2023-06-04T08:33:59;5.43;;;2.72;;
21959;SDS011;11144;43.030;25.108;2023-06-04T08:35:32;15.27;;;3.78;;
21959;SDS011;11144;43.030;25.108;2023-06-04T08:37:05;8.60;;;2.92;;
21959;SDS011;11144;43.030;25.108;2023-06-04T08:38:38;13.55;;;3.30;;
21959;SDS011;11144;43.030;25.108;2023-06-04T08:40:12;9.02;;;3.45;;
21959;SDS011;11144;43.030;25.108;2023-06-04T08:41:48;5.30;;;3.22;;
21959;SDS011;11144;43.030;25.108;2023-06-04T08:43:24;7.78;;;3.28;;
21959;SDS011;11144;43.030;25.108;2023-06-04T08:44:57;6.43;;;2.95;;
21959;SDS011;11144;43.030;25.108;2023-06-04T08:46:31;9.30;;;4.00;;
21959;SDS011;11144;43.030;25.108;2023-06-04T08:48:05;6.47;;;2.88;;
21959;SDS011;11144;43.030;25.108;2023-06-04T08:49:45;12.63;;;3.03;;
21959;SDS011;11144;43.030;25.108;2023-06-04T08:51:21;7.60;;;2.95;;
21959;SDS011;11144;43.030;25.108;2023-06-04T08:52:55;9.18;;;3.53;;
21959;SDS011;11144;43.030;25.108;2023-06-04T08:54:29;8.25;;;3.38;;
21959;SDS011;11144;43.030;25.108;2023-06-04T08:56:02;5.40;;;3.08;;
21959;SDS011;11144;43.030;25.108;2023-06-04T08:57:36;6.45;;;3.15;;
21959;SDS011;11144;43.030;25.108;2023-06-04T08:59:10;7.68;;;3.60;;
21959;SDS011;11144;43.030;25.108;2023-06-04T09:00:45;7.13;;;3.65;;
21959;SDS011;11144;43.030;25.108;2023-06-04T09:02:18;7.55;;;3.10;;
21959;SDS011;11144;43.030;25.108;2023-06-04T09:03:52;3.60;;;2.85;;
21959;SDS011;11144;43.030;25.108;2023-06-04T09:05:28;9.23;;;3.55;;
21959;SDS011;11144;43.030;25.108;2023-06-04T09:07:02;7.93;;;3.45;;
21959;SDS011;11144;43.030;25.108;2023-06-04T09:08:37;7.53;;;3.70;;
21959;SDS011;11144;43.030;25.108;2023-06-04T09:10:12;6.43;;;3.58;;
21959;SDS011;11144;43.030;25.108;2023-06-04T09:11:51;8.35;;;3.72;;
21959;SDS011;11144;43.030;25.108;2023-06-04T09:13:27;6.47;;;3.42;;
21959;SDS011;11144;43.030;25.108;2023-06-04T09:15:03;5.45;;;3.03;;
21959;SDS011;11144;43.030;25.108;2023-06-04T09:16:43;6.75;;;3.33;;
21959;SDS011;11144;43.030;25.108;2023-06-04T09:18:17;7.88;;;3.33;;